Melbourne, FL

1:59 AM EDT on May 30, 2015 (GMT -0400)
Melbourne International | | Change Station
CLOSE
Current Station
Airport
Location: Melbourne,
Elevation: 33 ft
Nearby Weather Stations

Elev 33 ft 28.10 °N, 80.65 °W | Updated 6 minutes ago

Partly Cloudy
Partly Cloudy
77 °F
Feels Like 77 °F
N
10
Wind Variable Wind from East

Today
High -- | Low -- °F
--% Chance of Precip.
Yesterday
High -- | Low -- °F
Precip. -- in
6:26 AM 8:13 PM
Waxing Gibbous, 88% visible
Pressure 30.06 in
Visibility 10.0 miles
Clouds Few 2600 ft
Dew Point 68 °F
Humidity 74%
Rainfall 0.00 in
Snow Depth Not available.
UV 0 out of 12
Pollen 4.60 out of 12
Air Quality Not available.
Flu Activity Sporadic
METAR KMLB 300553Z AUTO 08009KT 10SM FEW026 25/20 A3006 RMK AO2 SLP177 T02500200 10256 20244 58010

More Conditions Fewer Conditions

Pressure 30.06 in
Visibility 10.0 miles
Clouds Few 2600 ft
Dew Point 68 °F
Humidity 74%
Rainfall 0.00 in
Snow Depth Not available.
UV 0 out of 12
Pollen 4.60 out of 12
Air Quality Not available.
Flu Activity Sporadic
METAR KMLB 300553Z AUTO 08009KT 10SM FEW026 25/20 A3006 RMK AO2 SLP177 T02500200 10256 20244 58010

More Conditions Fewer Conditions

10-Day Weather Forecast

Almanac

Astronomy

May. 30, 2015 Rise Set
Actual Time
Civil Twilight
Nautical Twilight
Astronomical Twilight
Moon
Length of Visible Light
Length of Day
Tomorrow will be .
, % of the Moon is Illuminated

Today's Extremes

State Highs State Lows

Community

WunderPhotos

Upload Photos

1,825,473 photos uploaded!

WunderBlogs® & News

Nearby

Air Quality

  Air Quality AQ Index Pollutant
Not available.

Snow Depth

Station Depth Elevation

Earthquake Activity

City Distance Mag. Time & Date
Minimum magnitude displayed is 2.5.

Coastal Water Temperatures

Place Temperature

Stations

Nearby Weather Stations

Station Location Temp. Windchill Dew Point Humidity Wind Precip. Elev Updated Type